Time;durP1;ratioP1;P1;durP2;ratioP2;P2;SDS_P1;SDS_P2;PMS_P1;PMS_P2;Temp;Humidity;BMP_temperature;BMP_pressure;BME280_temperature;BME280_humidity;BME280_pressure;Samples;Min_cycle;Max_cycle;Signal;HPM_P1;HPM_P2
2021/08/19 00:02:41;;;;;;;7.20;1.90;;;;;;;;;;5111251;27;20388;-66
2021/08/19 00:05:07;;;;;;;3.90;1.95;;;;;;;;;;5111369;28;20024;-69
2021/08/19 00:07:33;;;;;;;3.17;1.52;;;;;;;;;;5111388;28;20073;-69
2021/08/19 00:10:10;;;;;;;5.38;2.15;;;;;;;;;;5111192;27;20840;-65
2021/08/19 00:12:36;;;;;;;4.50;1.83;;;;;;;;;;5111376;28;20020;-68
2021/08/19 00:15:03;;;;;;;5.32;2.05;;;;;;;;;;5111226;28;20094;-66
2021/08/19 00:17:29;;;;;;;3.63;1.65;;;;;;;;;;5110841;28;20099;-67
2021/08/19 00:19:55;;;;;;;7.65;1.80;;;;;;;;;;5126920;28;20027;-66
2021/08/19 00:22:21;;;;;;;3.67;1.58;;;;;;;;;;5111402;28;20099;-66
2021/08/19 00:25:32;;;;;;;5.43;1.98;;;;;;;;;;5111775;27;20393;-66
2021/08/19 00:27:58;;;;;;;4.45;1.77;;;;;;;;;;5111542;28;20051;-66
2021/08/19 00:30:25;;;;;;;9.10;2.50;;;;;;;;;;5110933;28;20099;-67
2021/08/19 00:32:51;;;;;;;4.05;1.77;;;;;;;;;;5111254;28;20074;-66
2021/08/19 00:35:17;;;;;;;9.63;2.22;;;;;;;;;;5111303;28;20099;-66
2021/08/19 00:37:43;;;;;;;4.00;1.63;;;;;;;;;;5110873;28;20059;-66
2021/08/19 00:40:10;;;;;;;5.00;2.03;;;;;;;;;;5111378;28;20028;-69
2021/08/19 00:42:36;;;;;;;3.15;1.40;;;;;;;;;;5111064;28;20016;-67
2021/08/19 00:45:02;;;;;;;2.97;1.60;;;;;;;;;;5110477;28;20055;-67
2021/08/19 00:47:31;;;;;;;3.83;2.00;;;;;;;;;;5110900;28;20496;-67
2021/08/19 00:51:57;;;;;;;7.03;2.10;;;;;;;;;;5111470;27;20420;-65
2021/08/19 00:54:24;;;;;;;3.17;1.40;;;;;;;;;;5127126;28;20027;-68
2021/08/19 00:58:44;;;;;;;5.45;1.90;;;;;;;;;;5111417;27;20404;-66
2021/08/19 01:01:10;;;;;;;5.55;2.20;;;;;;;;;;5110054;28;20377;-66
2021/08/19 01:05:41;;;;;;;5.28;1.88;;;;;;;;;;5111206;27;20408;-68
2021/08/19 01:08:08;;;;;;;3.22;1.55;;;;;;;;;;5111328;28;20028;-66
2021/08/19 01:10:34;;;;;;;3.10;1.40;;;;;;;;;;5111500;28;20056;-66
2021/08/19 01:13:01;;;;;;;6.82;2.10;;;;;;;;;;5110920;28;20041;-66
2021/08/19 01:15:28;;;;;;;4.70;1.98;;;;;;;;;;5127013;28;20380;-66
2021/08/19 01:17:55;;;;;;;3.20;1.52;;;;;;;;;;5126935;28;20418;-67
2021/08/19 01:23:51;;;;;;;8.60;1.67;;;;;;;;;;5071106;28;20407;-67
2021/08/19 01:26:19;;;;;;;7.78;1.70;;;;;;;;;;5069081;28;20542;-65
2021/08/19 01:28:46;;;;;;;3.35;1.63;;;;;;;;;;5070655;28;20096;-67
2021/08/19 01:32:59;;;;;;;4.80;1.70;;;;;;;;;;5111464;27;20878;-68
2021/08/19 01:38:09;;;;;;;3.50;1.70;;;;;;;;;;5111889;27;20420;-67
2021/08/19 01:40:36;;;;;;;4.80;1.52;;;;;;;;;;5110965;28;20024;-65
2021/08/19 01:45:02;;;;;;;2.47;1.58;;;;;;;;;;5111366;27;20442;-66
2021/08/19 01:48:15;;;;;;;4.75;1.80;;;;;;;;;;5111309;27;20396;-67
2021/08/19 01:50:41;;;;;;;5.80;1.50;;;;;;;;;;5111323;28;20028;-67
2021/08/19 01:53:07;;;;;;;3.40;1.35;;;;;;;;;;5111509;28;20023;-67
2021/08/19 02:00:36;;;;;;;2.38;1.17;;;;;;;;;;5111280;27;20504;-65
2021/08/19 02:03:02;;;;;;;6.63;1.73;;;;;;;;;;5109658;28;20056;-66
2021/08/19 02:05:29;;;;;;;5.05;1.60;;;;;;;;;;5111152;28;20050;-66
2021/08/19 02:10:10;;;;;;;4.28;1.70;;;;;;;;;;5111116;27;21022;-66
2021/08/19 02:14:33;;;;;;;3.20;1.58;;;;;;;;;;5112078;27;20397;-66
2021/08/19 02:16:59;;;;;;;5.80;1.83;;;;;;;;;;5110879;28;20028;-66
2021/08/19 02:21:00;;;;;;;7.90;2.42;;;;;;;;;;5111511;27;20396;-68
2021/08/19 02:24:43;;;;;;;3.38;1.50;;;;;;;;;;5111826;27;20408;-66
2021/08/19 02:27:09;;;;;;;8.40;1.98;;;;;;;;;;5111272;28;20024;-66
2021/08/19 02:30:40;;;;;;;4.25;1.80;;;;;;;;;;5111266;27;20385;-67
2021/08/19 02:33:06;;;;;;;3.53;1.77;;;;;;;;;;5111384;28;20035;-67
2021/08/19 02:35:33;;;;;;;4.20;1.98;;;;;;;;;;5111242;28;20357;-67
2021/08/19 02:40:36;;;;;;;4.78;1.63;;;;;;;;;;5111538;27;20916;-66
2021/08/19 02:43:52;;;;;;;3.85;1.33;;;;;;;;;;5111606;27;20393;-66
2021/08/19 02:46:18;;;;;;;6.60;2.10;;;;;;;;;;5111314;28;20027;-66
2021/08/19 02:48:45;;;;;;;4.47;1.80;;;;;;;;;;5109995;28;20579;-66
2021/08/19 02:51:11;;;;;;;5.10;2.60;;;;;;;;;;5110862;28;20030;-67
2021/08/19 02:53:37;;;;;;;6.03;1.55;;;;;;;;;;5111186;28;20077;-67
2021/08/19 02:56:04;;;;;;;4.90;1.90;;;;;;;;;;5111347;28;20027;-67
2021/08/19 03:00:08;;;;;;;6.13;2.28;;;;;;;;;;5111598;27;20412;-66
2021/08/19 03:04:02;;;;;;;4.45;1.90;;;;;;;;;;5111347;27;20863;-68
2021/08/19 03:06:28;;;;;;;4.97;1.63;;;;;;;;;;5111082;28;20052;-69
2021/08/19 03:08:55;;;;;;;3.25;1.23;;;;;;;;;;5111294;28;20027;-69
2021/08/19 03:11:21;;;;;;;3.88;1.70;;;;;;;;;;5111276;28;20089;-68
2021/08/19 03:13:47;;;;;;;4.65;1.80;;;;;;;;;;5110843;28;20020;-67
2021/08/19 03:16:13;;;;;;;4.60;1.60;;;;;;;;;;5111679;28;20078;-67
2021/08/19 03:18:39;;;;;;;3.83;1.80;;;;;;;;;;5110737;28;20050;-67
2021/08/19 03:21:06;;;;;;;5.05;1.70;;;;;;;;;;5111014;28;20479;-67
2021/08/19 03:25:12;;;;;;;6.07;2.33;;;;;;;;;;5112072;27;20405;-66
2021/08/19 03:28:28;;;;;;;4.53;1.60;;;;;;;;;;5112107;27;20389;-65
2021/08/19 03:30:54;;;;;;;5.50;1.65;;;;;;;;;;5111257;28;20020;-65
2021/08/19 03:35:34;;;;;;;3.80;1.70;;;;;;;;;;5132160;27;20313;-65
2021/08/19 03:41:12;;;;;;;4.05;1.90;;;;;;;;;;5111232;27;20404;-65
2021/08/19 03:44:24;;;;;;;4.50;1.58;;;;;;;;;;5111823;27;21008;-66
2021/08/19 03:46:51;;;;;;;5.22;1.80;;;;;;;;;;5111032;28;20028;-66
2021/08/19 03:50:13;;;;;;;4.85;1.80;;;;;;;;;;5111920;27;20524;-66
2021/08/19 03:52:39;;;;;;;5.28;1.60;;;;;;;;;;5111280;28;20476;-66
2021/08/19 03:55:06;;;;;;;6.10;2.00;;;;;;;;;;5110876;28;20023;-66
2021/08/19 03:57:32;;;;;;;3.28;1.50;;;;;;;;;;5111294;28;20024;-66
2021/08/19 03:59:58;;;;;;;8.07;2.08;;;;;;;;;;5111188;28;20028;-66
2021/08/19 04:02:25;;;;;;;5.00;1.95;;;;;;;;;;5110777;28;20026;-66
2021/08/19 04:06:10;;;;;;;4.40;2.08;;;;;;;;;;5111515;27;21040;-66
2021/08/19 04:08:36;;;;;;;3.75;1.60;;;;;;;;;;5111020;28;20383;-66
2021/08/19 04:11:02;;;;;;;4.15;1.75;;;;;;;;;;5111322;28;20024;-68
2021/08/19 04:13:29;;;;;;;4.75;1.80;;;;;;;;;;5111552;28;20024;-66
2021/08/19 04:15:55;;;;;;;5.03;2.15;;;;;;;;;;5110796;28;20415;-71
2021/08/19 04:18:21;;;;;;;4.13;1.83;;;;;;;;;;5111141;28;20511;-67
2021/08/19 04:20:47;;;;;;;6.13;1.75;;;;;;;;;;5109870;28;20403;-69
2021/08/19 04:28:49;;;;;;;3.65;1.60;;;;;;;;;;5112169;27;20450;-67
2021/08/19 04:31:15;;;;;;;3.83;1.63;;;;;;;;;;5111793;28;20016;-70
2021/08/19 04:36:02;;;;;;;5.80;2.03;;;;;;;;;;5111333;27;20441;-69
2021/08/19 04:39:15;;;;;;;5.15;2.25;;;;;;;;;;5071048;28;20408;-68
2021/08/19 04:44:38;;;;;;;2.88;1.45;;;;;;;;;;5111164;27;20912;-68
2021/08/19 04:47:04;;;;;;;4.65;2.25;;;;;;;;;;5111366;28;20384;-70
2021/08/19 04:49:30;;;;;;;4.35;1.83;;;;;;;;;;5111568;28;20521;-70
2021/08/19 04:51:56;;;;;;;5.15;2.00;;;;;;;;;;5109559;28;20376;-67
2021/08/19 04:54:23;;;;;;;6.13;2.17;;;;;;;;;;5109930;28;20024;-67
2021/08/19 04:56:49;;;;;;;4.57;1.90;;;;;;;;;;5109862;28;20107;-68
2021/08/19 04:59:15;;;;;;;7.07;2.20;;;;;;;;;;5110670;28;20481;-67
2021/08/19 05:01:42;;;;;;;3.33;2.05;;;;;;;;;;5111067;28;20069;-67
2021/08/19 05:04:09;;;;;;;5.63;2.22;;;;;;;;;;5110596;28;20492;-67
2021/08/19 05:06:35;;;;;;;5.22;2.05;;;;;;;;;;5109716;28;20031;-67
2021/08/19 05:10:08;;;;;;;5.47;1.92;;;;;;;;;;5048417;28;20417;-66
2021/08/19 05:12:34;;;;;;;4.65;1.67;;;;;;;;;;5050173;28;20030;-66
2021/08/19 05:16:52;;;;;;;5.25;2.08;;;;;;;;;;5112138;27;20393;-68
2021/08/19 05:19:40;;;;;;;3.20;1.77;;;;;;;;;;5050399;28;20451;-65
2021/08/19 05:22:06;;;;;;;6.28;1.92;;;;;;;;;;5050056;28;20057;-66
2021/08/19 05:24:32;;;;;;;5.38;1.85;;;;;;;;;;5048107;28;20457;-65
2021/08/19 05:26:58;;;;;;;4.72;1.83;;;;;;;;;;5050121;28;20104;-66
2021/08/19 05:30:30;;;;;;;3.50;2.00;;;;;;;;;;5111084;27;20385;-65
2021/08/19 05:32:56;;;;;;;5.57;1.98;;;;;;;;;;5126705;28;20506;-65
2021/08/19 05:35:23;;;;;;;4.88;1.60;;;;;;;;;;5126911;28;20365;-68
2021/08/19 05:37:49;;;;;;;6.10;1.92;;;;;;;;;;5126888;28;20077;-66
2021/08/19 05:40:15;;;;;;;7.85;2.00;;;;;;;;;;5110651;28;20416;-69
2021/08/19 05:42:42;;;;;;;4.72;2.10;;;;;;;;;;5110910;28;20479;-67
2021/08/19 05:45:08;;;;;;;4.47;1.75;;;;;;;;;;5110901;28;20054;-67
2021/08/19 05:47:34;;;;;;;4.90;2.00;;;;;;;;;;5110557;28;20539;-66
2021/08/19 05:51:13;;;;;;;5.32;2.10;;;;;;;;;;5111239;27;20392;-65
2021/08/19 05:53:40;;;;;;;4.93;1.92;;;;;;;;;;5110804;28;20028;-65
2021/08/19 05:56:07;;;;;;;3.13;1.67;;;;;;;;;;5110604;28;20115;-76
2021/08/19 05:58:33;;;;;;;4.68;1.67;;;;;;;;;;5105101;28;20092;-74
2021/08/19 06:00:59;;;;;;;6.05;1.90;;;;;;;;;;5110481;28;20019;-74
2021/08/19 06:03:26;;;;;;;5.88;2.35;;;;;;;;;;5111090;28;20028;-74
2021/08/19 06:05:52;;;;;;;4.60;2.10;;;;;;;;;;5110762;28;20404;-72
2021/08/19 06:08:19;;;;;;;4.35;1.95;;;;;;;;;;5108429;28;20042;-71
2021/08/19 06:10:45;;;;;;;4.93;2.25;;;;;;;;;;5109469;28;20036;-71
2021/08/19 06:13:12;;;;;;;9.65;3.47;;;;;;;;;;5110040;28;20054;-72
2021/08/19 06:15:38;;;;;;;6.15;2.17;;;;;;;;;;5110455;28;20028;-71
2021/08/19 06:18:04;;;;;;;5.45;2.58;;;;;;;;;;5110847;28;20384;-71
2021/08/19 06:20:30;;;;;;;9.55;2.13;;;;;;;;;;5106119;28;20746;-70
2021/08/19 06:22:57;;;;;;;6.68;2.03;;;;;;;;;;5109094;28;20051;-71
2021/08/19 06:25:23;;;;;;;5.07;2.28;;;;;;;;;;5108239;28;20080;-71
2021/08/19 06:27:50;;;;;;;6.38;1.90;;;;;;;;;;5110108;28;20024;-72
2021/08/19 06:31:59;;;;;;;6.32;1.88;;;;;;;;;;5109428;27;20400;-73
2021/08/19 06:34:49;;;;;;;6.40;2.58;;;;;;;;;;5111029;27;20466;-73
2021/08/19 06:38:54;;;;;;;5.13;2.38;;;;;;;;;;5110856;27;20446;-73
2021/08/19 06:41:21;;;;;;;5.88;2.47;;;;;;;;;;5110905;28;20088;-71
2021/08/19 06:47:13;;;;;;;9.75;5.13;;;;;;;;;;5111131;27;20396;-72
2021/08/19 06:51:30;;;;;;;5.28;2.00;;;;;;;;;;5110878;27;20388;-71
2021/08/19 06:54:19;;;;;;;7.10;2.40;;;;;;;;;;5111347;27;20454;-73
2021/08/19 06:56:45;;;;;;;4.53;2.38;;;;;;;;;;5110729;28;20437;-71
2021/08/19 06:59:11;;;;;;;3.10;1.52;;;;;;;;;;5111065;28;20090;-70
2021/08/19 07:01:38;;;;;;;5.07;1.60;;;;;;;;;;5110037;28;20024;-69
2021/08/19 07:04:04;;;;;;;5.95;2.15;;;;;;;;;;5110608;28;20053;-71
2021/08/19 07:07:02;;;;;;;5.38;1.67;;;;;;;;;;5111170;27;20392;-71
2021/08/19 07:09:30;;;;;;;5.20;2.05;;;;;;;;;;5108723;28;20032;-72
2021/08/19 07:11:56;;;;;;;8.98;2.40;;;;;;;;;;5108622;28;20026;-73
2021/08/19 07:14:22;;;;;;;5.63;1.80;;;;;;;;;;5109049;28;20020;-73
2021/08/19 07:16:48;;;;;;;9.55;2.22;;;;;;;;;;5105454;28;20050;-70
2021/08/19 07:19:14;;;;;;;6.32;1.90;;;;;;;;;;5108872;28;20129;-71
2021/08/19 07:21:41;;;;;;;3.92;1.75;;;;;;;;;;5109441;28;20024;-72
2021/08/19 07:26:58;;;;;;;5.10;1.98;;;;;;;;;;5157560;27;20570;-71
2021/08/19 07:29:24;;;;;;;4.07;1.80;;;;;;;;;;5152225;27;20030;-71
2021/08/19 07:31:50;;;;;;;4.82;1.50;;;;;;;;;;5130289;27;20012;-71
2021/08/19 07:34:16;;;;;;;4.22;2.15;;;;;;;;;;5149746;27;20019;-70
2021/08/19 07:36:42;;;;;;;8.57;2.05;;;;;;;;;;5149524;27;20023;-71
2021/08/19 07:39:09;;;;;;;3.05;1.48;;;;;;;;;;5148711;27;20034;-69
2021/08/19 07:41:36;;;;;;;3.75;1.67;;;;;;;;;;5131774;27;20029;-69
2021/08/19 07:44:02;;;;;;;1.50;1.10;;;;;;;;;;5151660;27;20481;-70
2021/08/19 07:46:32;;;;;;;4.82;2.20;;;;;;;;;;5149626;27;20042;-70
2021/08/19 07:49:02;;;;;;;3.08;1.60;;;;;;;;;;5152030;27;20019;-71
2021/08/19 07:51:31;;;;;;;4.45;1.38;;;;;;;;;;5150836;27;20488;-74
2021/08/19 07:53:58;;;;;;;3.03;1.20;;;;;;;;;;5151385;27;20019;-72
2021/08/19 07:56:31;;;;;;;3.78;1.38;;;;;;;;;;5151885;27;20106;-72
2021/08/19 07:58:59;;;;;;;5.65;1.48;;;;;;;;;;5150356;27;20101;-71
2021/08/19 08:01:25;;;;;;;3.00;1.52;;;;;;;;;;5149415;27;20057;-72
2021/08/19 08:03:51;;;;;;;3.72;1.77;;;;;;;;;;5148973;27;20425;-72
2021/08/19 08:06:21;;;;;;;4.22;1.70;;;;;;;;;;5144523;27;20038;-71
2021/08/19 08:08:52;;;;;;;3.65;1.70;;;;;;;;;;5147332;27;20122;-73
2021/08/19 08:11:22;;;;;;;;;;;;;;;;;;5128675;27;20483;-72
2021/08/19 08:13:50;;;;;;;3.22;1.42;;;;;;;;;;5147915;27;19991;-72
2021/08/19 08:17:11;;;;;;;4.32;1.42;;;;;;;;;;5150290;27;20329;-71
2021/08/19 08:19:41;;;;;;;5.32;1.70;;;;;;;;;;5128695;28;20054;-71
2021/08/19 08:22:08;;;;;;;4.25;1.35;;;;;;;;;;5107385;28;20049;-71
2021/08/19 08:24:34;;;;;;;2.85;1.20;;;;;;;;;;5125175;28;20380;-71
2021/08/19 08:27:01;;;;;;;5.50;1.50;;;;;;;;;;5130149;28;20554;-73
2021/08/19 08:29:27;;;;;;;2.22;1.23;;;;;;;;;;5109164;28;20024;-71
2021/08/19 08:31:53;;;;;;;2.78;1.30;;;;;;;;;;5108398;28;20019;-73
2021/08/19 08:34:20;;;;;;;6.60;1.52;;;;;;;;;;5127755;28;20019;-73
2021/08/19 08:36:47;;;;;;;3.03;1.40;;;;;;;;;;5108834;28;20028;-73
2021/08/19 08:39:13;;;;;;;3.33;1.40;;;;;;;;;;5110130;28;20102;-70
2021/08/19 08:41:40;;;;;;;5.22;1.83;;;;;;;;;;5109614;28;20379;-72
2021/08/19 08:44:06;;;;;;;2.95;1.15;;;;;;;;;;5109831;28;20020;-70
2021/08/19 08:46:35;;;;;;;4.35;1.40;;;;;;;;;;5108581;28;20106;-73
2021/08/19 08:49:02;;;;;;;1.67;0.93;;;;;;;;;;5109651;28;20020;-71
2021/08/19 08:51:28;;;;;;;4.03;1.42;;;;;;;;;;5110134;28;20046;-71
2021/08/19 08:55:30;;;;;;;3.05;1.10;;;;;;;;;;5070136;28;20391;-73
2021/08/19 08:57:57;;;;;;;7.38;1.67;;;;;;;;;;5069963;28;20031;-72
2021/08/19 09:00:23;;;;;;;5.13;1.20;;;;;;;;;;5064694;28;21090;-70
2021/08/19 09:02:49;;;;;;;2.05;1.00;;;;;;;;;;5063954;28;20019;-74
2021/08/19 09:05:19;;;;;;;2.10;0.95;;;;;;;;;;5067374;28;20096;-72
2021/08/19 09:07:49;;;;;;;3.00;1.40;;;;;;;;;;5069298;28;20036;-73
2021/08/19 09:10:18;;;;;;;2.92;1.02;;;;;;;;;;5069444;28;20032;-73
2021/08/19 09:12:44;;;;;;;4.45;1.13;;;;;;;;;;5069540;28;20029;-74
2021/08/19 09:15:14;;;;;;;4.13;1.42;;;;;;;;;;5068502;28;20037;-72
2021/08/19 09:17:42;;;;;;;3.47;1.40;;;;;;;;;;5069393;28;20039;-74
2021/08/19 09:20:08;;;;;;;4.18;1.00;;;;;;;;;;5069165;28;20355;-74
2021/08/19 09:22:50;;;;;;;6.30;1.85;;;;;;;;;;5069550;28;20027;-75
2021/08/19 09:25:33;;;;;;;2.10;0.90;;;;;;;;;;5069348;28;20358;-74
2021/08/19 09:28:16;;;;;;;3.35;1.10;;;;;;;;;;5069816;28;20063;-73
2021/08/19 09:30:44;;;;;;;4.20;1.17;;;;;;;;;;5069052;28;20515;-72
2021/08/19 09:33:10;;;;;;;3.25;1.52;;;;;;;;;;5066893;28;20543;-76
2021/08/19 09:35:37;;;;;;;2.60;1.33;;;;;;;;;;5068827;28;20481;-79
2021/08/19 09:38:11;;;;;;;1.88;0.73;;;;;;;;;;5068589;28;20497;-75
2021/08/19 09:40:37;;;;;;;2.78;1.25;;;;;;;;;;5068114;28;20028;-75
2021/08/19 09:43:04;;;;;;;3.83;1.27;;;;;;;;;;5068332;28;20032;-78
2021/08/19 09:45:30;;;;;;;2.90;1.15;;;;;;;;;;5066599;28;20585;-76
2021/08/19 09:48:06;;;;;;;2.63;1.10;;;;;;;;;;5069210;28;20029;-75
2021/08/19 09:50:34;;;;;;;2.97;1.08;;;;;;;;;;5067678;28;20452;-75
2021/08/19 09:53:15;;;;;;;3.55;1.35;;;;;;;;;;5067446;28;20025;-75
2021/08/19 09:55:42;;;;;;;7.45;1.20;;;;;;;;;;5069232;28;20071;-75
2021/08/19 09:58:09;;;;;;;2.85;1.20;;;;;;;;;;5064356;28;20024;-75
2021/08/19 10:00:42;;;;;;;2.88;1.27;;;;;;;;;;5065458;28;20081;-76
2021/08/19 10:03:10;;;;;;;2.25;0.90;;;;;;;;;;5068782;28;20021;-75
2021/08/19 10:05:37;;;;;;;2.97;1.33;;;;;;;;;;5062266;28;20021;-75
2021/08/19 10:08:07;;;;;;;5.55;1.30;;;;;;;;;;5054714;28;20013;-75
2021/08/19 10:10:36;;;;;;;5.55;1.58;;;;;;;;;;5055293;28;20032;-73
2021/08/19 10:13:03;;;;;;;2.30;1.33;;;;;;;;;;5052695;28;20585;-76
2021/08/19 10:15:33;;;;;;;3.53;1.55;;;;;;;;;;5055145;28;20098;-74
2021/08/19 10:18:00;;;;;;;3.55;1.30;;;;;;;;;;5055588;28;20021;-77
2021/08/19 10:20:29;;;;;;;2.72;1.20;;;;;;;;;;5055123;28;20032;-75
2021/08/19 10:22:56;;;;;;;4.35;1.38;;;;;;;;;;5046409;28;20013;-74
2021/08/19 10:25:25;;;;;;;4.32;1.08;;;;;;;;;;5055104;28;20082;-76
2021/08/19 10:28:10;;;;;;;2.10;0.98;;;;;;;;;;5055026;28;20021;-74
2021/08/19 10:30:45;;;;;;;4.18;1.25;;;;;;;;;;5054302;28;20096;-74
2021/08/19 10:33:31;;;;;;;2.33;1.10;;;;;;;;;;5055783;28;20040;-72
2021/08/19 10:35:57;;;;;;;3.70;1.20;;;;;;;;;;5054909;28;20036;-74
2021/08/19 10:38:26;;;;;;;2.38;1.23;;;;;;;;;;5055100;28;20389;-74
2021/08/19 10:40:52;;;;;;;2.72;1.00;;;;;;;;;;5055216;28;20028;-75
2021/08/19 10:43:37;;;;;;;4.70;2.10;;;;;;;;;;5054622;28;20032;-74
2021/08/19 10:46:15;;;;;;;4.13;2.10;;;;;;;;;;5054843;28;20028;-75
2021/08/19 10:48:54;;;;;;;2.45;1.20;;;;;;;;;;5054684;28;20151;-76
2021/08/19 10:51:20;;;;;;;4.88;1.30;;;;;;;;;;5054872;28;20032;-77
2021/08/19 10:53:47;;;;;;;3.38;1.20;;;;;;;;;;5054746;28;20056;-70
2021/08/19 10:56:13;;;;;;;4.07;1.48;;;;;;;;;;5049031;28;20025;-69
2021/08/19 10:58:43;;;;;;;3.10;1.52;;;;;;;;;;5054828;28;20021;-69
2021/08/19 11:01:17;;;;;;;2.47;1.10;;;;;;;;;;5054774;28;20021;-68
2021/08/19 11:03:43;;;;;;;3.85;1.25;;;;;;;;;;5054527;28;20115;-70
2021/08/19 11:06:14;;;;;;;3.50;1.60;;;;;;;;;;5055011;28;20041;-69
2021/08/19 11:08:40;;;;;;;2.60;1.30;;;;;;;;;;5055043;28;20028;-70
2021/08/19 11:11:07;;;;;;;3.33;1.38;;;;;;;;;;5054137;28;20021;-70
2021/08/19 11:13:36;;;;;;;5.28;1.08;;;;;;;;;;5054542;28;20025;-70
2021/08/19 11:16:10;;;;;;;2.30;1.20;;;;;;;;;;5053504;28;20495;-69
2021/08/19 11:18:37;;;;;;;1.85;1.08;;;;;;;;;;5053590;28;20028;-68
2021/08/19 11:21:05;;;;;;;4.05;1.25;;;;;;;;;;5054448;28;20029;-68
2021/08/19 11:23:42;;;;;;;3.92;1.50;;;;;;;;;;5053271;28;20025;-68
2021/08/19 11:26:09;;;;;;;2.95;1.10;;;;;;;;;;5052839;28;20017;-68
2021/08/19 11:28:37;;;;;;;3.53;1.50;;;;;;;;;;5054481;28;20025;-69
2021/08/19 11:31:14;;;;;;;3.35;1.52;;;;;;;;;;5052294;28;20113;-69
2021/08/19 11:33:40;;;;;;;3.78;1.17;;;;;;;;;;5053949;28;20120;-69
2021/08/19 11:36:07;;;;;;;3.17;1.48;;;;;;;;;;5053083;28;20021;-70
2021/08/19 11:38:33;;;;;;;3.55;1.15;;;;;;;;;;5054155;28;20041;-71
2021/08/19 11:41:10;;;;;;;3.95;1.40;;;;;;;;;;5049673;28;20385;-70
2021/08/19 11:43:38;;;;;;;4.50;1.67;;;;;;;;;;5053453;28;20058;-70
2021/08/19 11:46:04;;;;;;;3.40;1.27;;;;;;;;;;5052639;28;20049;-70
2021/08/19 11:48:31;;;;;;;2.00;0.93;;;;;;;;;;5053677;28;20025;-70
2021/08/19 11:50:58;;;;;;;5.55;1.83;;;;;;;;;;5054011;28;20021;-70
2021/08/19 11:53:24;;;;;;;2.53;1.40;;;;;;;;;;5053505;28;20102;-71
2021/08/19 11:55:51;;;;;;;5.60;1.70;;;;;;;;;;5054048;28;20033;-69
2021/08/19 11:58:22;;;;;;;4.38;1.50;;;;;;;;;;5053690;28;20029;-70
2021/08/19 12:00:58;;;;;;;3.05;1.60;;;;;;;;;;5053299;28;20025;-70
2021/08/19 12:03:25;;;;;;;3.50;1.63;;;;;;;;;;5053789;28;20029;-69
2021/08/19 12:05:59;;;;;;;4.80;1.85;;;;;;;;;;5051080;28;20389;-69
2021/08/19 12:08:26;;;;;;;2.92;1.65;;;;;;;;;;5052730;28;20544;-71
2021/08/19 12:10:53;;;;;;;4.22;1.58;;;;;;;;;;5052026;28;20025;-70
2021/08/19 12:13:19;;;;;;;3.30;1.45;;;;;;;;;;5053374;28;20029;-69
2021/08/19 12:15:46;;;;;;;2.97;1.33;;;;;;;;;;5053806;28;20029;-69
2021/08/19 12:18:13;;;;;;;3.55;1.50;;;;;;;;;;5053791;28;20519;-69
2021/08/19 12:20:39;;;;;;;2.92;1.70;;;;;;;;;;5050665;28;20441;-69
2021/08/19 12:23:18;;;;;;;2.33;1.27;;;;;;;;;;5050203;28;20021;-70
2021/08/19 12:25:44;;;;;;;3.30;1.50;;;;;;;;;;5051887;28;20077;-70
2021/08/19 12:28:11;;;;;;;4.82;1.70;;;;;;;;;;5051465;28;20025;-70
2021/08/19 12:30:54;;;;;;;3.75;1.73;;;;;;;;;;5052364;28;20029;-70
2021/08/19 12:33:29;;;;;;;4.93;2.15;;;;;;;;;;5052909;28;20477;-70
2021/08/19 12:36:08;;;;;;;4.65;1.90;;;;;;;;;;5051459;28;20025;-70
2021/08/19 12:38:34;;;;;;;4.00;2.13;;;;;;;;;;5053274;28;20485;-70
2021/08/19 12:41:14;;;;;;;4.25;2.05;;;;;;;;;;5053392;28;20025;-71
2021/08/19 12:43:41;;;;;;;4.30;1.80;;;;;;;;;;5053547;28;20025;-70
2021/08/19 12:46:10;;;;;;;4.47;1.80;;;;;;;;;;5053373;28;20031;-70
2021/08/19 12:48:36;;;;;;;3.67;2.22;;;;;;;;;;5052978;28;20021;-70
2021/08/19 12:51:23;;;;;;;4.20;2.22;;;;;;;;;;5053588;28;20025;-70
2021/08/19 12:54:06;;;;;;;4.03;2.20;;;;;;;;;;5053030;28;20045;-70
2021/08/19 12:56:33;;;;;;;3.00;1.95;;;;;;;;;;5051650;28;20377;-70
2021/08/19 12:58:59;;;;;;;4.72;2.13;;;;;;;;;;5053332;28;20044;-70
2021/08/19 13:01:26;;;;;;;4.68;2.35;;;;;;;;;;5051942;28;20028;-71
2021/08/19 13:03:52;;;;;;;6.68;2.20;;;;;;;;;;5052880;28;20108;-71
2021/08/19 13:06:20;;;;;;;3.45;1.80;;;;;;;;;;5051868;28;20022;-70
2021/08/19 13:08:47;;;;;;;3.15;1.90;;;;;;;;;;5053397;28;20024;-69
2021/08/19 13:11:13;;;;;;;4.95;1.90;;;;;;;;;;5051223;28;20025;-70
2021/08/19 13:13:40;;;;;;;3.97;2.25;;;;;;;;;;5050988;28;20115;-69
2021/08/19 13:16:06;;;;;;;4.32;2.30;;;;;;;;;;5051799;28;20072;-69
2021/08/19 13:18:33;;;;;;;4.05;1.98;;;;;;;;;;5051734;28;20100;-70
2021/08/19 13:21:00;;;;;;;4.03;2.05;;;;;;;;;;5052317;28;20043;-69
2021/08/19 13:23:28;;;;;;;3.45;1.92;;;;;;;;;;5051925;28;20362;-69
2021/08/19 13:25:55;;;;;;;5.75;2.45;;;;;;;;;;5052451;28;20541;-69
2021/08/19 13:28:21;;;;;;;4.97;2.10;;;;;;;;;;5052985;28;20037;-69
2021/08/19 13:30:48;;;;;;;5.50;2.65;;;;;;;;;;5052765;28;20048;-70
2021/08/19 13:33:14;;;;;;;4.60;2.40;;;;;;;;;;5051590;28;20527;-69
2021/08/19 13:35:40;;;;;;;3.35;1.55;;;;;;;;;;5053282;28;20043;-69
2021/08/19 13:38:07;;;;;;;3.75;2.05;;;;;;;;;;5052396;28;20017;-69
2021/08/19 13:40:34;;;;;;;4.15;2.08;;;;;;;;;;5054034;28;20416;-71
2021/08/19 13:43:00;;;;;;;4.93;2.28;;;;;;;;;;5056644;28;20021;-70
2021/08/19 13:45:26;;;;;;;6.32;2.47;;;;;;;;;;5056361;28;20496;-70
2021/08/19 13:47:52;;;;;;;8.90;2.58;;;;;;;;;;5056637;28;20401;-70
2021/08/19 13:50:18;;;;;;;4.50;2.33;;;;;;;;;;5055371;28;20028;-70
2021/08/19 13:52:44;;;;;;;5.97;2.70;;;;;;;;;;5056081;28;20029;-70
2021/08/19 13:55:11;;;;;;;5.28;2.25;;;;;;;;;;5054991;28;20132;-70
2021/08/19 13:57:37;;;;;;;5.00;2.50;;;;;;;;;;5056718;28;20036;-70
2021/08/19 14:00:04;;;;;;;4.90;2.25;;;;;;;;;;5055955;28;20061;-70
2021/08/19 14:02:30;;;;;;;4.97;2.28;;;;;;;;;;5056383;28;20032;-69
2021/08/19 14:04:56;;;;;;;4.57;1.88;;;;;;;;;;5056256;28;20074;-69
2021/08/19 14:07:22;;;;;;;8.32;4.25;;;;;;;;;;5054547;28;20493;-69
2021/08/19 14:09:49;;;;;;;7.70;3.53;;;;;;;;;;5056428;28;20039;-69
2021/08/19 14:12:15;;;;;;;3.67;2.00;;;;;;;;;;5056114;28;20533;-69
2021/08/19 14:14:41;;;;;;;6.38;2.55;;;;;;;;;;5055614;28;20108;-69
2021/08/19 14:17:09;;;;;;;3.55;2.13;;;;;;;;;;5056052;28;20027;-69
2021/08/19 14:19:36;;;;;;;3.92;2.00;;;;;;;;;;5055692;28;20025;-69
2021/08/19 14:22:02;;;;;;;2.90;1.85;;;;;;;;;;5055960;28;20043;-70
2021/08/19 14:24:31;;;;;;;6.85;2.72;;;;;;;;;;5056210;28;20075;-71
2021/08/19 14:26:58;;;;;;;4.75;2.30;;;;;;;;;;5055451;28;20013;-70
2021/08/19 14:29:24;;;;;;;5.47;2.13;;;;;;;;;;5055839;28;20049;-70
2021/08/19 14:31:50;;;;;;;6.75;4.13;;;;;;;;;;5055701;28;20062;-70
2021/08/19 14:34:16;;;;;;;4.72;2.55;;;;;;;;;;5055219;28;20120;-70
2021/08/19 14:36:42;;;;;;;2.92;1.83;;;;;;;;;;5055644;28;20056;-70
2021/08/19 14:39:10;;;;;;;4.80;2.50;;;;;;;;;;5054392;28;20036;-69
2021/08/19 14:41:36;;;;;;;6.35;2.70;;;;;;;;;;5055301;28;20546;-70
2021/08/19 14:44:03;;;;;;;4.40;2.20;;;;;;;;;;5054557;28;20025;-70
2021/08/19 14:46:30;;;;;;;4.82;2.25;;;;;;;;;;5055878;28;20017;-70
2021/08/19 14:48:56;;;;;;;4.93;2.78;;;;;;;;;;5055127;28;20159;-70
2021/08/19 14:51:22;;;;;;;3.67;2.17;;;;;;;;;;5055695;28;20147;-70
2021/08/19 14:53:49;;;;;;;4.03;1.98;;;;;;;;;;5055137;28;20106;-70
2021/08/19 14:56:15;;;;;;;10.15;2.92;;;;;;;;;;5053887;28;20025;-71
2021/08/19 14:58:41;;;;;;;7.30;2.88;;;;;;;;;;5055374;28;20492;-71
2021/08/19 15:01:08;;;;;;;6.63;3.70;;;;;;;;;;5055373;28;20029;-71
2021/08/19 15:03:34;;;;;;;18.02;10.52;;;;;;;;;;5054867;28;20021;-69
2021/08/19 15:06:01;;;;;;;8.50;3.40;;;;;;;;;;5055465;28;20037;-69
2021/08/19 15:08:27;;;;;;;4.15;1.90;;;;;;;;;;5055107;28;20021;-69
2021/08/19 15:10:56;;;;;;;4.15;2.10;;;;;;;;;;5054590;28;20030;-69
2021/08/19 15:13:22;;;;;;;41.22;23.52;;;;;;;;;;5054926;28;20473;-69
2021/08/19 15:15:50;;;;;;;5.47;3.03;;;;;;;;;;5055147;28;20033;-69
2021/08/19 15:18:17;;;;;;;5.68;2.58;;;;;;;;;;5054574;28;20024;-70
2021/08/19 15:20:43;;;;;;;4.90;2.00;;;;;;;;;;5054886;28;20036;-70
2021/08/19 15:23:09;;;;;;;3.90;2.28;;;;;;;;;;5054566;28;20066;-69
2021/08/19 15:25:36;;;;;;;7.43;3.78;;;;;;;;;;5053494;28;20028;-70
2021/08/19 15:28:07;;;;;;;4.55;2.22;;;;;;;;;;5053439;28;20021;-70
2021/08/19 15:30:33;;;;;;;6.05;2.20;;;;;;;;;;5054731;28;20017;-70
2021/08/19 15:32:59;;;;;;;4.03;2.08;;;;;;;;;;5054591;28;20059;-70
2021/08/19 15:35:25;;;;;;;5.85;2.10;;;;;;;;;;5051692;28;20401;-70
2021/08/19 15:37:51;;;;;;;4.15;1.92;;;;;;;;;;5053933;28;20092;-70
2021/08/19 15:40:17;;;;;;;4.10;2.22;;;;;;;;;;5054446;28;20025;-70
2021/08/19 15:42:44;;;;;;;3.38;1.95;;;;;;;;;;5054444;28;20027;-70
2021/08/19 15:45:10;;;;;;;4.15;1.80;;;;;;;;;;5053595;28;20591;-70
2021/08/19 15:47:36;;;;;;;4.35;2.05;;;;;;;;;;5054295;28;20037;-69
2021/08/19 15:50:03;;;;;;;6.80;2.17;;;;;;;;;;5054260;28;20029;-70
2021/08/19 15:52:30;;;;;;;6.03;2.70;;;;;;;;;;5053911;28;20100;-70
2021/08/19 15:54:57;;;;;;;3.45;1.77;;;;;;;;;;5052709;28;20063;-70
2021/08/19 15:57:23;;;;;;;5.97;3.10;;;;;;;;;;5054420;28;20021;-70
2021/08/19 15:59:49;;;;;;;4.22;2.20;;;;;;;;;;5053748;28;20025;-70
2021/08/19 16:02:15;;;;;;;5.40;2.53;;;;;;;;;;5054122;28;20427;-70
2021/08/19 16:04:41;;;;;;;5.97;2.40;;;;;;;;;;5052256;28;20036;-70
2021/08/19 16:07:08;;;;;;;5.40;2.63;;;;;;;;;;5052284;28;20474;-70